Time;durP1;ratioP1;P1;durP2;ratioP2;P2;SDS_P1;SDS_P2;PMS_P1;PMS_P2;Temp;Humidity;BMP_temperature;BMP_pressure;BME280_temperature;BME280_humidity;BME280_pressure;Samples;Min_cycle;Max_cycle;Signal;HPM_P1;HPM_P2
2022/08/13 00:00:22;;;;;;;;;;;18.10;99.90;;;;;;5077143;28;19908;-91
2022/08/13 00:02:47;;;;;;;;;;;18.20;99.90;;;;;;5056613;28;19909;-91
2022/08/13 00:05:13;;;;;;;;;;;18.10;99.90;;;;;;5044120;28;20389;-93
2022/08/13 00:07:39;;;;;;;;;;;18.00;99.90;;;;;;5045122;28;20275;-92
2022/08/13 00:10:07;;;;;;;;;;;18.10;99.90;;;;;;5043159;28;19908;-92
2022/08/13 00:15:20;;;;;;;;;;;18.20;99.90;;;;;;5061382;28;20002;-91
2022/08/13 00:17:49;;;;;;;;;;;18.00;99.90;;;;;;5046066;28;19911;-93
2022/08/13 00:20:17;;;;;;;;;;;18.10;99.90;;;;;;5045388;28;19905;-93
2022/08/13 00:22:42;;;;;;;;;;;18.20;99.90;;;;;;5043450;28;20382;-93
2022/08/13 00:25:08;;;;;;;;;;;18.20;99.90;;;;;;5045713;28;19908;-92
2022/08/13 00:27:34;;;;;;;;;;;18.20;99.90;;;;;;5045269;28;19928;-92
2022/08/13 00:30:00;;;;;;;;;;;18.10;99.90;;;;;;5043946;28;19944;-93
2022/08/13 00:32:30;;;;;;;;;;;18.10;99.90;;;;;;5045811;28;19904;-92
2022/08/13 00:34:56;;;;;;;;;;;18.10;99.90;;;;;;5045196;28;19919;-93
2022/08/13 00:37:22;;;;;;;;;;;18.10;99.90;;;;;;5045469;28;19905;-92
2022/08/13 00:39:48;;;;;;;;;;;17.90;99.90;;;;;;5057648;28;19916;-92
2022/08/13 00:42:18;;;;;;;;;;;18.00;99.90;;;;;;5066883;28;19905;-93
2022/08/13 00:44:44;;;;;;;;;;;18.10;99.90;;;;;;5047205;28;19905;-92
2022/08/13 00:49:53;;;;;;;;;;;18.10;99.90;;;;;;5062029;28;19958;-91
2022/08/13 00:52:19;;;;;;;;;;;18.10;99.90;;;;;;5045756;28;19916;-92
2022/08/13 00:54:46;;;;;;;;;;;18.10;99.90;;;;;;5043678;28;20420;-91
2022/08/13 00:57:12;;;;;;;;;;;18.10;99.90;;;;;;5049080;28;19954;-92
2022/08/13 00:59:37;;;;;;;;;;;18.10;99.90;;;;;;5049438;28;19904;-93
2022/08/13 01:02:04;;;;;;;;;;;18.00;99.90;;;;;;5038738;28;19904;-93
2022/08/13 01:04:30;;;;;;;;;;;18.00;99.90;;;;;;5049094;28;20362;-92
2022/08/13 01:06:57;;;;;;;;;;;18.10;99.90;;;;;;5049089;28;19912;-93
2022/08/13 01:09:29;;;;;;;;;;;18.00;99.90;;;;;;5047527;28;19905;-93
2022/08/13 01:11:57;;;;;;;;;;;18.00;99.90;;;;;;5049115;28;19905;-91
2022/08/13 01:14:24;;;;;;;;;;;18.00;99.90;;;;;;5061941;28;19915;-89
2022/08/13 01:16:52;;;;;;;;;;;17.90;99.90;;;;;;5066056;28;19905;-94
2022/08/13 01:19:19;;;;;;;;;;;17.90;99.90;;;;;;5047695;28;19959;-94
2022/08/13 01:21:45;;;;;;;;;;;17.90;99.90;;;;;;5049696;28;19916;-92
2022/08/13 01:24:11;;;;;;;;;;;17.90;99.90;;;;;;5048359;28;19947;-92
2022/08/13 01:26:39;;;;;;;;;;;18.00;99.90;;;;;;5047392;28;19904;-92
2022/08/13 01:29:06;;;;;;;;;;;17.90;99.90;;;;;;5049328;28;20367;-91
2022/08/13 01:31:33;;;;;;;;;;;17.90;99.90;;;;;;5048872;28;19905;-93
2022/08/13 01:34:03;;;;;;;;;;;17.90;99.90;;;;;;5047969;28;19912;-92
2022/08/13 01:36:29;;;;;;;;;;;18.00;99.90;;;;;;5044022;28;19967;-92
2022/08/13 01:38:57;;;;;;;;;;;18.00;99.90;;;;;;5049136;28;19911;-93
2022/08/13 01:41:25;;;;;;;;;;;18.00;99.90;;;;;;5048784;28;20255;-93
2022/08/13 01:43:51;;;;;;;;;;;17.90;99.90;;;;;;5047788;28;19915;-89
2022/08/13 01:46:16;;;;;;;;;;;17.90;99.90;;;;;;5047162;28;19908;-90
2022/08/13 01:51:31;;;;;;;;;;;17.80;99.90;;;;;;5055855;28;19911;-91
2022/08/13 01:54:00;;;;;;;;;;;17.70;99.90;;;;;;5047891;28;19904;-91
2022/08/13 01:56:27;;;;;;;;;;;17.70;99.90;;;;;;5047122;28;19952;-93
2022/08/13 01:58:55;;;;;;;;;;;17.70;99.90;;;;;;5047642;28;19996;-90
2022/08/13 02:01:26;;;;;;;;;;;17.70;99.90;;;;;;5071402;23;19925;-57
2022/08/13 02:03:53;;;;;;;;;;;17.80;99.90;;;;;;5080975;28;19904;-57
2022/08/13 02:06:26;;;;;;;;;;;17.80;99.90;;;;;;5082536;28;19975;-58
2022/08/13 02:08:56;;;;;;;;;;;17.80;99.90;;;;;;5082101;28;19927;-58
2022/08/13 02:11:22;;;;;;;;;;;17.80;99.90;;;;;;5080918;28;20274;-58
2022/08/13 02:13:52;;;;;;;;;;;17.80;99.90;;;;;;5081766;28;20634;-57
2022/08/13 02:16:18;;;;;;;;;;;17.90;99.90;;;;;;5082540;28;19916;-57
2022/08/13 02:18:44;;;;;;;;;;;17.90;99.90;;;;;;5081194;28;20467;-57
2022/08/13 02:21:11;;;;;;;;;;;17.90;99.90;;;;;;5081127;28;20362;-58
2022/08/13 02:23:36;;;;;;;;;;;17.80;99.90;;;;;;5082531;28;20401;-57
2022/08/13 02:26:05;;;;;;;;;;;17.80;99.90;;;;;;5080927;28;19908;-58
2022/08/13 02:28:33;;;;;;;;;;;17.90;99.90;;;;;;5081181;28;20274;-58
2022/08/13 02:30:58;;;;;;;;;;;17.80;99.90;;;;;;5082262;28;19986;-56
2022/08/13 02:33:24;;;;;;;;;;;17.90;99.90;;;;;;5081097;28;20371;-58
2022/08/13 02:35:50;;;;;;;;;;;18.00;99.90;;;;;;5080972;28;20510;-58
2022/08/13 02:38:16;;;;;;;;;;;18.00;99.90;;;;;;5082420;28;19994;-57
2022/08/13 02:43:27;;;;;;;;;;;18.10;99.90;;;;;;5079839;28;19997;-58
2022/08/13 02:45:54;;;;;;;;;;;18.10;99.90;;;;;;5082028;28;19979;-58
2022/08/13 02:48:26;;;;;;;;;;;18.10;99.90;;;;;;5079895;28;19911;-58
2022/08/13 02:50:52;;;;;;;;;;;18.00;99.90;;;;;;5080553;28;19904;-57
2022/08/13 02:53:19;;;;;;;;;;;18.10;99.90;;;;;;5081891;28;19970;-58
2022/08/13 02:55:47;;;;;;;;;;;18.10;99.90;;;;;;5080559;28;20379;-57
2022/08/13 02:58:14;;;;;;;;;;;18.10;99.90;;;;;;5080282;28;19927;-58
2022/08/13 03:00:41;;;;;;;;;;;18.10;99.90;;;;;;5081680;28;19923;-58
2022/08/13 03:03:08;;;;;;;;;;;18.10;99.90;;;;;;5080607;28;19957;-58
2022/08/13 03:05:34;;;;;;;;;;;18.00;99.90;;;;;;5079695;28;20422;-58
2022/08/13 03:08:00;;;;;;;;;;;17.90;99.90;;;;;;5081586;28;19904;-58
2022/08/13 03:10:27;;;;;;;;;;;17.90;99.90;;;;;;5080302;28;19908;-58
2022/08/13 03:13:00;;;;;;;;;;;18.00;99.90;;;;;;5079613;28;19908;-57
2022/08/13 03:15:27;;;;;;;;;;;17.90;99.90;;;;;;5080056;28;20359;-57
2022/08/13 03:17:53;;;;;;;;;;;17.90;99.90;;;;;;5079431;28;19930;-57
2022/08/13 03:20:18;;;;;;;;;;;17.90;99.90;;;;;;5081351;28;19908;-57
2022/08/13 03:22:51;;;;;;;;;;;18.00;99.90;;;;;;5079680;28;20551;-57
2022/08/13 03:25:18;;;;;;;;;;;17.90;99.90;;;;;;5079116;28;19950;-57
2022/08/13 03:27:44;;;;;;;;;;;17.90;99.90;;;;;;5080633;28;19912;-57
2022/08/13 03:30:11;;;;;;;;;;;17.80;99.90;;;;;;5080479;28;19915;-57
2022/08/13 03:32:40;;;;;;;;;;;17.70;99.90;;;;;;5078737;28;20411;-57
2022/08/13 03:35:08;;;;;;;;;;;17.70;99.90;;;;;;5080211;28;19941;-57
2022/08/13 03:37:35;;;;;;;;;;;17.80;99.90;;;;;;5080840;28;19912;-58
2022/08/13 03:40:01;;;;;;;;;;;17.80;99.90;;;;;;5081798;28;19912;-57
2022/08/13 03:42:27;;;;;;;;;;;17.80;99.90;;;;;;5080277;28;20381;-58
2022/08/13 03:44:54;;;;;;;;;;;17.60;99.90;;;;;;5080508;28;19957;-57
2022/08/13 03:47:19;;;;;;;;;;;17.70;99.90;;;;;;5078657;28;20667;-57
2022/08/13 03:49:46;;;;;;;;;;;17.80;99.90;;;;;;5080331;28;19943;-58
2022/08/13 03:52:13;;;;;;;;;;;17.80;99.90;;;;;;5080357;28;20287;-57
2022/08/13 03:54:39;;;;;;;;;;;17.80;99.90;;;;;;5078585;28;19924;-57
2022/08/13 03:57:04;;;;;;;;;;;17.80;99.90;;;;;;5080405;28;19904;-58
2022/08/13 03:59:31;;;;;;;;;;;17.90;99.90;;;;;;5080044;28;20432;-58
2022/08/13 04:02:01;;;;;;;;;;;17.90;99.90;;;;;;5078286;28;19920;-58
2022/08/13 04:04:27;;;;;;;;;;;17.80;99.90;;;;;;5079760;28;19953;-57
2022/08/13 04:06:52;;;;;;;;;;;17.90;99.90;;;;;;5080194;28;19954;-57
2022/08/13 04:09:18;;;;;;;;;;;18.00;99.90;;;;;;5078465;28;20679;-58
2022/08/13 04:11:46;;;;;;;;;;;18.00;99.90;;;;;;5080260;28;19920;-58
2022/08/13 04:14:12;;;;;;;;;;;18.00;99.90;;;;;;5079971;28;19954;-58
2022/08/13 04:16:39;;;;;;;;;;;17.90;99.90;;;;;;5060092;28;19905;-57
2022/08/13 04:19:05;;;;;;;;;;;17.80;99.90;;;;;;5079971;28;19908;-57
2022/08/13 04:21:31;;;;;;;;;;;17.90;99.90;;;;;;5079579;28;19955;-58
2022/08/13 04:23:57;;;;;;;;;;;17.90;99.90;;;;;;5078025;28;20440;-57
2022/08/13 04:26:25;;;;;;;;;;;17.90;99.90;;;;;;5080035;28;20078;-58
2022/08/13 04:28:53;;;;;;;;;;;17.80;99.90;;;;;;5079526;28;19912;-58
2022/08/13 04:31:19;;;;;;;;;;;17.90;99.90;;;;;;5077739;28;20002;-58
2022/08/13 04:33:45;;;;;;;;;;;17.80;99.90;;;;;;5079608;28;20342;-57
2022/08/13 04:36:11;;;;;;;;;;;17.80;99.90;;;;;;5079182;28;19913;-58
2022/08/13 04:38:37;;;;;;;;;;;17.90;99.90;;;;;;5078297;28;19995;-58
2022/08/13 04:41:03;;;;;;;;;;;17.90;99.90;;;;;;5079720;28;20388;-58
2022/08/13 04:43:29;;;;;;;;;;;18.00;99.90;;;;;;5079003;28;19909;-58
2022/08/13 04:46:00;;;;;;;;;;;18.00;99.90;;;;;;5078153;28;19957;-57
2022/08/13 04:48:32;;;;;;;;;;;18.10;99.90;;;;;;5078692;28;19908;-57
2022/08/13 04:50:57;;;;;;;;;;;18.00;99.90;;;;;;5077943;28;19905;-57
2022/08/13 04:53:23;;;;;;;;;;;18.10;99.90;;;;;;5079706;28;19965;-58
2022/08/13 04:55:49;;;;;;;;;;;18.10;99.90;;;;;;5078935;28;20005;-57
2022/08/13 04:58:14;;;;;;;;;;;18.10;99.90;;;;;;5078366;28;19912;-58
2022/08/13 05:00:41;;;;;;;;;;;18.20;99.90;;;;;;5079785;28;19915;-57
2022/08/13 05:03:11;;;;;;;;;;;18.20;99.90;;;;;;5078532;28;19905;-57
2022/08/13 05:05:36;;;;;;;;;;;18.30;99.90;;;;;;5077902;28;19912;-57
2022/08/13 05:08:07;;;;;;;;;;;18.30;99.90;;;;;;5079871;28;19908;-58
2022/08/13 05:10:38;;;;;;;;;;;18.40;99.90;;;;;;5079476;28;19908;-58
2022/08/13 05:13:05;;;;;;;;;;;18.50;99.90;;;;;;5077377;28;19982;-58
2022/08/13 05:15:31;;;;;;;;;;;18.40;99.90;;;;;;5079084;28;19930;-58
2022/08/13 05:17:57;;;;;;;;;;;18.40;99.90;;;;;;5077922;28;20469;-57
2022/08/13 05:20:23;;;;;;;;;;;18.40;99.90;;;;;;5061366;28;19908;-58
2022/08/13 05:22:48;;;;;;;;;;;18.40;99.90;;;;;;5078777;28;20450;-58
2022/08/13 05:25:14;;;;;;;;;;;18.40;99.90;;;;;;5077879;28;19908;-58
2022/08/13 05:27:42;;;;;;;;;;;18.50;99.90;;;;;;5079799;28;19904;-57
2022/08/13 05:30:09;;;;;;;;;;;18.50;99.90;;;;;;5078725;28;19912;-58
2022/08/13 05:32:40;;;;;;;;;;;18.60;99.90;;;;;;5077805;28;20411;-57
2022/08/13 05:35:08;;;;;;;;;;;18.60;99.90;;;;;;5078132;28;19965;-58
2022/08/13 05:37:33;;;;;;;;;;;18.60;99.90;;;;;;5077761;28;19912;-58
2022/08/13 05:39:59;;;;;;;;;;;18.50;99.90;;;;;;5079511;28;19912;-58
2022/08/13 05:42:24;;;;;;;;;;;18.60;99.90;;;;;;5079088;28;19915;-58
2022/08/13 05:44:50;;;;;;;;;;;18.60;99.90;;;;;;5082029;28;20271;-58
2022/08/13 05:47:16;;;;;;;;;;;18.60;99.90;;;;;;5083120;28;20313;-58
2022/08/13 05:49:41;;;;;;;;;;;18.70;99.90;;;;;;5080111;28;19908;-57
2022/08/13 05:52:07;;;;;;;;;;;18.70;99.90;;;;;;5063654;28;19911;-57
2022/08/13 05:54:34;;;;;;;;;;;18.70;99.90;;;;;;5081134;28;19905;-57
2022/08/13 05:57:00;;;;;;;;;;;18.60;99.90;;;;;;5083126;28;19908;-58
2022/08/13 06:04:55;;;;;;;;;;;18.60;99.90;;;;;;5058554;28;19931;-57
2022/08/13 06:07:22;;;;;;;;;;;18.60;99.90;;;;;;5061112;28;21293;-58
2022/08/13 06:09:47;;;;;;;;;;;18.60;99.90;;;;;;5057061;28;19912;-58
2022/08/13 06:12:14;;;;;;;;;;;18.60;99.90;;;;;;5061570;28;19936;-59
2022/08/13 06:14:40;;;;;;;;;;;18.60;99.90;;;;;;5060689;28;19916;-58
2022/08/13 06:17:05;;;;;;;;;;;18.60;99.90;;;;;;5062363;28;20381;-58
2022/08/13 06:19:32;;;;;;;;;;;18.70;99.90;;;;;;5059266;28;19979;-57
2022/08/13 06:22:02;;;;;;;;;;;18.70;99.90;;;;;;5060896;28;19911;-58
2022/08/13 06:24:32;;;;;;;;;;;18.70;99.90;;;;;;5062331;28;19904;-58
2022/08/13 06:27:00;;;;;;;;;;;18.70;99.90;;;;;;5062078;28;19905;-58
2022/08/13 06:29:27;;;;;;;;;;;18.70;99.90;;;;;;5060231;28;19908;-57
2022/08/13 06:31:54;;;;;;;;;;;18.70;99.90;;;;;;5061306;28;19908;-57
2022/08/13 06:34:20;;;;;;;;;;;18.80;99.90;;;;;;5061745;28;19909;-57
2022/08/13 06:36:48;;;;;;;;;;;18.80;99.90;;;;;;5059913;28;20275;-57
2022/08/13 06:39:15;;;;;;;;;;;18.80;99.90;;;;;;5061171;28;20133;-57
2022/08/13 06:41:42;;;;;;;;;;;18.80;99.90;;;;;;5061575;28;20069;-57
2022/08/13 06:44:08;;;;;;;;;;;18.90;99.90;;;;;;5060078;28;20053;-57
2022/08/13 06:46:33;;;;;;;;;;;19.00;99.90;;;;;;5060627;28;20007;-57
2022/08/13 06:49:00;;;;;;;;;;;19.00;99.90;;;;;;5061181;28;19908;-57
2022/08/13 06:51:26;;;;;;;;;;;19.00;99.90;;;;;;5059549;28;19905;-57
2022/08/13 06:53:54;;;;;;;;;;;19.10;99.90;;;;;;5060908;28;19904;-57
2022/08/13 06:56:20;;;;;;;;;;;19.10;99.90;;;;;;5061342;28;20011;-57
2022/08/13 06:58:47;;;;;;;;;;;19.20;99.90;;;;;;5059446;28;19917;-57
2022/08/13 07:01:19;;;;;;;;;;;19.20;99.90;;;;;;5069548;28;19916;-58
2022/08/13 07:03:45;;;;;;;;;;;19.20;99.90;;;;;;5081590;28;19908;-56
2022/08/13 07:06:16;;;;;;;;;;;19.20;99.90;;;;;;5079667;28;19908;-56
2022/08/13 07:08:42;;;;;;;;;;;19.20;99.90;;;;;;5079715;28;19977;-56
2022/08/13 07:11:22;;;;;;;;;;;19.20;99.90;;;;;;5081408;28;20355;-57
2022/08/13 07:13:52;;;;;;;;;;;19.20;99.90;;;;;;5079569;28;19915;-56
2022/08/13 07:16:19;;;;;;;;;;;19.30;99.90;;;;;;5079706;28;19912;-57
2022/08/13 07:18:46;;;;;;;;;;;19.30;99.90;;;;;;5063019;28;19923;-57
2022/08/13 07:21:13;;;;;;;;;;;19.40;99.90;;;;;;5079635;28;19908;-56
2022/08/13 07:23:40;;;;;;;;;;;19.30;99.90;;;;;;5079678;28;19908;-57
2022/08/13 07:26:06;;;;;;;;;;;19.40;99.90;;;;;;5081200;28;19952;-56
2022/08/13 07:28:32;;;;;;;;;;;19.40;99.90;;;;;;5079361;28;19908;-56
2022/08/13 07:30:59;;;;;;;;;;;19.40;99.90;;;;;;5079513;28;19915;-56
2022/08/13 07:33:25;;;;;;;;;;;19.50;99.90;;;;;;5080826;28;19904;-57
2022/08/13 07:35:50;;;;;;;;;;;19.50;99.90;;;;;;5079234;28;19938;-56
2022/08/13 07:38:16;;;;;;;;;;;19.50;99.90;;;;;;5061553;28;19904;-56
2022/08/13 07:40:44;;;;;;;;;;;19.50;99.90;;;;;;5080622;28;19951;-58
2022/08/13 07:43:11;;;;;;;;;;;19.50;99.90;;;;;;5079128;28;19914;-56
2022/08/13 07:45:39;;;;;;;;;;;19.50;99.90;;;;;;5079695;28;19904;-56
2022/08/13 07:48:06;;;;;;;;;;;19.50;99.90;;;;;;5080549;28;19908;-56
2022/08/13 07:50:33;;;;;;;;;;;19.50;99.90;;;;;;5079171;28;19909;-57
2022/08/13 07:52:59;;;;;;;;;;;19.50;99.90;;;;;;5061030;28;19958;-56
2022/08/13 07:55:26;;;;;;;;;;;19.50;99.90;;;;;;5080875;28;19940;-56
2022/08/13 07:57:52;;;;;;;;;;;19.50;99.90;;;;;;5079394;28;19909;-56
2022/08/13 08:00:29;;;;;;;;;;;19.60;99.90;;;;;;5078909;28;19908;-56
2022/08/13 08:02:56;;;;;;;;;;;19.70;99.90;;;;;;5079181;28;20015;-56
2022/08/13 08:05:24;;;;;;;;;;;19.70;99.90;;;;;;5077855;28;19908;-57
2022/08/13 08:07:50;;;;;;;;;;;19.70;99.90;;;;;;5078615;28;19954;-56
2022/08/13 08:10:17;;;;;;;;;;;19.80;99.90;;;;;;5079128;28;20289;-56
2022/08/13 08:12:43;;;;;;;;;;;19.80;99.90;;;;;;5070068;28;19908;-56
2022/08/13 08:15:10;;;;;;;;;;;19.80;99.90;;;;;;5077872;28;19924;-56
2022/08/13 08:17:36;;;;;;;;;;;19.90;99.90;;;;;;5080317;28;19943;-58
2022/08/13 08:20:02;;;;;;;;;;;19.90;99.90;;;;;;5077470;28;19939;-56
2022/08/13 08:22:28;;;;;;;;;;;19.90;99.90;;;;;;5079554;28;19909;-57
2022/08/13 08:24:54;;;;;;;;;;;20.00;99.90;;;;;;5077453;28;20346;-56
2022/08/13 08:27:19;;;;;;;;;;;19.90;99.90;;;;;;5081004;28;19912;-56
2022/08/13 08:29:46;;;;;;;;;;;19.90;99.90;;;;;;5081653;28;19919;-56
2022/08/13 08:32:12;;;;;;;;;;;19.90;99.90;;;;;;5079001;28;19913;-56
2022/08/13 08:34:40;;;;;;;;;;;19.90;99.90;;;;;;5078449;28;19908;-56
2022/08/13 08:37:06;;;;;;;;;;;19.90;99.90;;;;;;5076260;28;20371;-56
2022/08/13 08:42:38;;;;;;;;;;;19.90;99.90;;;;;;5070206;28;19939;-57
2022/08/13 08:45:12;;;;;;;;;;;20.00;99.90;;;;;;5069903;28;19919;-57
2022/08/13 08:47:37;;;;;;;;;;;20.00;99.90;;;;;;5051845;28;20022;-56
2022/08/13 08:50:05;;;;;;;;;;;20.00;99.90;;;;;;5069738;28;20376;-57
2022/08/13 08:55:15;;;;;;;;;;;20.10;99.90;;;;;;5068258;28;20079;-57
2022/08/13 08:57:44;;;;;;;;;;;20.10;99.90;;;;;;5068322;28;19999;-57
2022/08/13 09:00:18;;;;;;;;;;;20.10;99.90;;;;;;5068307;28;19917;-57
2022/08/13 09:02:46;;;;;;;;;;;20.20;99.90;;;;;;5069235;28;19916;-57
2022/08/13 09:05:14;;;;;;;;;;;20.20;99.90;;;;;;5063004;28;20377;-57
2022/08/13 09:07:41;;;;;;;;;;;20.20;99.90;;;;;;5082394;28;19916;-57
2022/08/13 09:10:09;;;;;;;;;;;20.20;99.90;;;;;;5078219;28;19999;-57
2022/08/13 09:12:36;;;;;;;;;;;20.20;99.90;;;;;;5078149;28;19907;-57
2022/08/13 09:15:03;;;;;;;;;;;20.20;99.90;;;;;;5079474;28;19912;-57
2022/08/13 09:17:29;;;;;;;;;;;20.30;99.90;;;;;;5081348;28;19904;-57
2022/08/13 09:19:55;;;;;;;;;;;20.20;99.90;;;;;;5082186;28;19904;-57
2022/08/13 09:22:21;;;;;;;;;;;20.30;99.90;;;;;;5073620;28;19904;-57
2022/08/13 09:24:48;;;;;;;;;;;20.30;99.90;;;;;;5081628;28;20283;-57
2022/08/13 09:27:17;;;;;;;;;;;20.40;99.90;;;;;;5083690;28;19908;-57
2022/08/13 09:29:43;;;;;;;;;;;20.50;99.90;;;;;;5081117;28;19970;-57
2022/08/13 09:43:29;;;;;;;20.02;14.23;;;20.70;99.90;;;;;;5105666;27;20445;-57
2022/08/13 09:45:56;;;;;;;20.80;14.90;;;20.80;99.90;;;;;;5105659;28;20031;-57
2022/08/13 09:48:24;;;;;;;21.27;15.43;;;20.70;99.90;;;;;;5106401;28;20028;-57
2022/08/13 09:50:52;;;;;;;18.90;14.52;;;20.80;99.90;;;;;;5103827;28;20028;-56
2022/08/13 09:53:18;;;;;;;18.48;13.82;;;20.70;99.90;;;;;;5106015;28;20023;-57
2022/08/13 09:55:44;;;;;;;15.20;10.98;;;20.70;99.90;;;;;;5105761;28;20028;-58
2022/08/13 09:58:11;;;;;;;15.13;10.88;;;20.70;99.90;;;;;;5105736;28;20467;-57
2022/08/13 10:00:37;;;;;;;13.07;10.35;;;20.60;99.90;;;;;;5106177;28;20085;-56
2022/08/13 10:03:07;;;;;;;12.70;9.57;;;20.70;99.90;;;;;;5105997;28;20050;-56
2022/08/13 10:05:37;;;;;;;14.77;9.02;;;20.60;99.90;;;;;;5102796;28;20020;-57
2022/08/13 10:08:04;;;;;;;11.43;8.75;;;20.70;99.90;;;;;;5105991;28;20026;-57
2022/08/13 10:10:30;;;;;;;11.73;8.27;;;20.70;99.90;;;;;;5105288;28;20477;-57
2022/08/13 10:12:58;;;;;;;11.70;8.35;;;20.70;99.90;;;;;;5105296;28;20036;-57
2022/08/13 10:15:24;;;;;;;11.68;8.48;;;20.80;99.90;;;;;;5103820;28;20111;-57
2022/08/13 10:17:56;;;;;;;11.52;8.85;;;20.80;99.90;;;;;;5103857;28;20126;-57
2022/08/13 10:20:33;;;;;;;11.25;8.20;;;20.90;99.90;;;;;;5105215;28;20016;-57
2022/08/13 10:23:01;;;;;;;10.77;8.35;;;21.10;99.90;;;;;;5103787;28;20028;-57
2022/08/13 10:25:28;;;;;;;12.50;8.90;;;21.20;99.90;;;;;;5105071;28;20360;-60
2022/08/13 10:27:55;;;;;;;14.20;10.07;;;21.30;99.90;;;;;;5105282;28;20085;-60
2022/08/13 10:30:24;;;;;;;16.73;11.45;;;21.40;99.90;;;;;;5105117;28;20522;-58
2022/08/13 10:32:54;;;;;;;14.85;10.98;;;21.50;99.90;;;;;;5104911;28;20040;-57
2022/08/13 10:35:19;;;;;;;14.93;11.23;;;21.50;99.90;;;;;;5104929;28;20484;-57
2022/08/13 10:37:53;;;;;;;15.80;11.77;;;21.70;99.90;;;;;;5105059;28;20032;-57
2022/08/13 10:40:22;;;;;;;15.55;11.73;;;21.90;99.90;;;;;;5105251;28;20035;-57
2022/08/13 10:42:48;;;;;;;24.00;10.85;;;22.10;99.90;;;;;;5096876;28;20058;-57
2022/08/13 10:45:14;;;;;;;16.98;12.57;;;22.60;99.90;;;;;;5090731;28;20032;-57
2022/08/13 10:47:51;;;;;;;13.63;11.15;;;22.70;99.90;;;;;;5090965;28;20024;-57
2022/08/13 10:50:26;;;;;;;14.50;11.07;;;23.30;99.90;;;;;;5088120;28;20491;-57
2022/08/13 10:52:52;;;;;;;14.63;11.02;;;23.60;99.90;;;;;;5088757;28;20043;-57
2022/08/13 10:55:18;;;;;;;17.40;12.40;;;24.00;99.90;;;;;;5090710;28;20380;-56
2022/08/13 10:57:45;;;;;;;16.70;10.80;;;24.10;99.90;;;;;;5089287;28;20054;-56
2022/08/13 11:00:14;;;;;;;12.90;10.27;;;24.00;99.90;;;;;;5090722;28;20433;-57
2022/08/13 11:02:40;;;;;;;13.45;10.32;;;23.90;99.90;;;;;;5090908;28;20129;-57
2022/08/13 11:05:08;;;;;;;14.82;11.75;;;23.80;99.90;;;;;;5090573;28;20024;-56
2022/08/13 11:07:36;;;;;;;15.77;11.00;;;23.70;99.90;;;;;;5090782;28;20031;-57
2022/08/13 11:10:05;;;;;;;15.65;11.15;;;23.60;99.90;;;;;;5090475;28;20020;-56
2022/08/13 11:12:36;;;;;;;16.33;11.55;;;23.40;99.90;;;;;;5090526;28;20036;-56
2022/08/13 11:15:08;;;;;;;14.38;10.02;;;23.30;99.90;;;;;;5090215;28;20032;-57
2022/08/13 11:17:34;;;;;;;13.80;10.25;;;23.20;99.90;;;;;;5090241;28;20459;-56
2022/08/13 11:20:06;;;;;;;17.42;10.32;;;23.20;99.90;;;;;;5090256;28;20568;-57
2022/08/13 11:22:32;;;;;;;13.52;10.25;;;23.20;99.90;;;;;;5090350;28;20032;-56
2022/08/13 11:25:00;;;;;;;13.17;10.37;;;23.20;99.90;;;;;;5090413;28;20055;-56
2022/08/13 11:27:27;;;;;;;14.25;9.32;;;23.20;99.90;;;;;;5090878;28;20016;-57
2022/08/13 11:29:59;;;;;;;14.38;9.57;;;23.10;99.90;;;;;;5054410;28;20028;-59
2022/08/13 11:32:34;;;;;;;13.85;9.55;;;23.10;99.90;;;;;;5088208;28;20380;-57
2022/08/13 11:35:00;;;;;;;12.27;9.60;;;22.90;99.90;;;;;;5090646;28;20016;-56
2022/08/13 11:37:25;;;;;;;17.63;11.05;;;22.80;99.90;;;;;;5090461;28;20031;-58
2022/08/13 11:39:51;;;;;;;17.83;11.02;;;22.80;99.90;;;;;;5090520;28;20024;-57
2022/08/13 11:42:17;;;;;;;12.45;9.65;;;22.80;99.90;;;;;;5089749;28;20092;-56
2022/08/13 11:44:43;;;;;;;15.57;11.25;;;22.90;99.90;;;;;;5089961;28;20055;-57
2022/08/13 11:47:08;;;;;;;15.23;11.30;;;22.90;99.90;;;;;;5090450;28;20020;-56
2022/08/13 11:49:43;;;;;;;18.35;12.07;;;22.90;99.90;;;;;;5090726;28;20024;-57
2022/08/13 11:52:08;;;;;;;19.02;11.88;;;23.10;99.90;;;;;;5087577;28;20065;-57
2022/08/13 11:54:40;;;;;;;13.80;10.60;;;23.30;99.90;;;;;;5089033;28;20032;-57
2022/08/13 11:57:17;;;;;;;16.60;11.18;;;23.40;99.90;;;;;;5087244;28;20020;-56
2022/08/13 11:59:43;;;;;;;13.93;10.63;;;23.70;99.90;;;;;;5089564;28;20020;-56
2022/08/13 12:02:09;;;;;;;14.55;11.23;;;24.00;99.90;;;;;;5089693;28;20035;-56
2022/08/13 12:04:36;;;;;;;18.33;11.27;;;24.20;99.90;;;;;;5089960;28;20019;-57
2022/08/13 12:07:09;;;;;;;15.57;11.95;;;24.40;99.90;;;;;;5089949;28;20024;-57
2022/08/13 12:09:35;;;;;;;17.38;11.63;;;24.40;99.90;;;;;;5089852;28;20043;-57
2022/08/13 12:12:01;;;;;;;15.15;10.40;;;24.30;99.90;;;;;;5087961;28;20039;-57
2022/08/13 12:14:27;;;;;;;16.52;11.65;;;24.20;99.90;;;;;;5089618;28;20035;-57
2022/08/13 12:16:52;;;;;;;22.42;11.85;;;24.10;99.90;;;;;;5089460;28;20829;-57
2022/08/13 12:19:18;;;;;;;17.27;11.90;;;24.00;99.90;;;;;;5089375;28;20024;-57
2022/08/13 12:21:44;;;;;;;20.38;11.55;;;23.90;99.90;;;;;;5089239;28;20390;-57
2022/08/13 12:24:09;;;;;;;20.05;10.95;;;23.90;99.90;;;;;;5089471;28;20036;-57
2022/08/13 12:26:35;;;;;;;15.98;10.88;;;23.70;99.90;;;;;;5089396;28;20483;-55
2022/08/13 12:29:01;;;;;;;15.48;11.73;;;23.70;99.90;;;;;;5089113;28;20016;-55
2022/08/13 12:31:26;;;;;;;16.98;10.73;;;23.60;99.90;;;;;;5089169;28;20138;-55
2022/08/13 12:33:57;;;;;;;14.75;10.55;;;23.60;99.90;;;;;;5089808;28;20031;-59
2022/08/13 12:36:23;;;;;;;15.88;10.75;;;23.50;99.90;;;;;;5089556;28;20463;-57
2022/08/13 12:38:49;;;;;;;14.35;10.18;;;23.40;99.90;;;;;;5089032;28;20054;-56
2022/08/13 12:41:14;;;;;;;15.05;10.85;;;23.50;99.90;;;;;;5088934;28;20025;-57
2022/08/13 12:43:40;;;;;;;17.15;10.88;;;23.50;99.90;;;;;;5088416;28;20119;-57
2022/08/13 12:46:06;;;;;;;15.25;10.38;;;23.40;99.90;;;;;;5089401;28;20020;-58
2022/08/13 12:48:32;;;;;;;15.90;10.00;;;23.40;99.90;;;;;;5089273;28;20123;-57
2022/08/13 12:50:57;;;;;;;17.38;11.60;;;23.50;99.90;;;;;;5089604;28;20032;-58
2022/08/13 12:53:23;;;;;;;14.82;11.13;;;23.60;99.90;;;;;;5089555;28;20063;-57
2022/08/13 12:55:49;;;;;;;15.38;11.52;;;23.60;99.90;;;;;;5088546;28;20051;-57
2022/08/13 12:58:20;;;;;;;16.73;10.82;;;23.60;99.90;;;;;;5089239;28;20024;-57
2022/08/13 13:00:49;;;;;;;17.83;12.02;;;23.50;99.90;;;;;;5087497;28;20036;-57
2022/08/13 13:03:15;;;;;;;14.95;11.45;;;23.60;99.90;;;;;;5089122;28;20058;-56
2022/08/13 13:05:43;;;;;;;16.35;11.77;;;23.60;99.90;;;;;;5087965;28;20031;-56
2022/08/13 13:08:17;;;;;;;18.65;12.00;;;23.60;99.90;;;;;;5089768;28;20035;-56
2022/08/13 13:10:45;;;;;;;15.85;11.60;;;23.60;99.90;;;;;;5088129;28;20016;-56
2022/08/13 13:13:12;;;;;;;14.50;11.68;;;23.60;99.90;;;;;;5088035;28;20028;-56
2022/08/13 13:15:39;;;;;;;17.05;12.45;;;23.60;99.90;;;;;;5088138;28;20086;-56
2022/08/13 13:18:17;;;;;;;18.80;12.20;;;23.70;99.90;;;;;;5088208;28;20131;-56
2022/08/13 13:20:45;;;;;;;15.88;12.43;;;23.80;99.90;;;;;;5086985;28;20042;-56
2022/08/13 13:23:12;;;;;;;20.15;12.73;;;23.80;99.90;;;;;;5087975;28;20035;-56
2022/08/13 13:25:40;;;;;;;16.35;12.43;;;23.80;99.90;;;;;;5087805;28;20432;-56
2022/08/13 13:28:15;;;;;;;15.55;12.40;;;23.90;99.90;;;;;;5089873;28;20030;-56
2022/08/13 13:30:42;;;;;;;15.20;11.93;;;23.90;99.90;;;;;;5089566;28;20023;-56
2022/08/13 13:33:09;;;;;;;;;;;24.10;99.90;;;;;;5089928;28;20395;-56
2022/08/13 13:35:36;;;;;;;13.55;10.18;;;24.20;99.90;;;;;;5089490;28;20347;-57
2022/08/13 13:38:04;;;;;;;15.52;11.23;;;24.20;99.90;;;;;;5089407;28;20024;-56
2022/08/13 13:40:30;;;;;;;16.17;10.70;;;24.30;99.90;;;;;;5089369;28;20024;-56
2022/08/13 13:42:59;;;;;;;14.88;10.57;;;24.30;99.90;;;;;;5087940;28;20083;-56
2022/08/13 13:45:27;;;;;;;14.85;10.68;;;24.30;99.90;;;;;;5089241;28;20024;-57
2022/08/13 13:47:54;;;;;;;13.40;10.88;;;24.20;99.90;;;;;;5089070;28;20043;-56
2022/08/13 13:50:19;;;;;;;;;;;24.10;99.90;;;;;;5089310;28;20131;-56
2022/08/13 13:52:45;;;;;;;16.20;11.18;;;24.00;99.90;;;;;;5087590;28;20069;-56
2022/08/13 13:55:11;;;;;;;17.50;11.70;;;24.00;99.90;;;;;;5087459;28;20024;-57
2022/08/13 13:57:40;;;;;;;15.73;11.68;;;24.10;99.90;;;;;;5087686;28;20020;-57
2022/08/13 14:00:11;;;;;;;17.95;11.75;;;24.00;99.90;;;;;;5088541;28;20059;-57
2022/08/13 14:02:48;;;;;;;16.25;12.25;;;23.90;99.90;;;;;;5088750;28;20024;-57
2022/08/13 14:05:14;;;;;;;14.18;11.75;;;23.60;99.90;;;;;;5088631;28;20194;-56
2022/08/13 14:07:40;;;;;;;14.27;12.57;;;23.60;99.90;;;;;;5088835;28;20512;-56
2022/08/13 14:10:06;;;;;;;17.55;13.00;;;23.40;99.90;;;;;;5089558;28;20544;-56
2022/08/13 14:12:32;;;;;;;16.38;12.82;;;23.10;99.90;;;;;;5089227;28;20036;-57